Islandia, New York
Current Conditions -  °F | °C
As of 12:56 PM on Thursday 23 Oct 2014 (Local Time) from KISP Reporting Station
Light Rain Light Rain  
Wind Chill: 53°   Ceiling: 2400
Heat Index: 53°   Visibility: 10mi
Dew Point: 49°   Wind: 15mph
Humidity: 86%   Direction: 350°N
Pressure: 29.62"   Gusts: NA
Location:  40.8°N, 73.17°W
Report Text: KISP 231656Z 35013KT 10SM -RA FEW015 BKN024 OVC029 12/09 A2962 RMK AO2 SLP029 P0000 T01170094
Loading
Personal Weather Stations






























Interactive Weather Map
Tropical Storm Tracking
New forecast layout! Learn more

10-Day Weather Forecast

Advertisements
Track Severe Weather on mobile